createdAt,value
2022-07-25T00:00:45.008Z,18.52
2022-07-25T00:07:09.421Z,18.72
2022-07-25T00:13:33.812Z,19.07
2022-07-25T00:19:58.195Z,19.24
2022-07-25T00:26:22.648Z,19.31
2022-07-25T00:32:47.166Z,19.28
2022-07-25T00:39:11.600Z,19.24
2022-07-25T00:45:35.995Z,19.20
2022-07-25T00:52:00.323Z,19.13
2022-07-25T00:58:24.700Z,19.09
2022-07-25T01:04:49.028Z,19.05
2022-07-25T01:11:13.316Z,19.11
2022-07-25T01:17:37.748Z,19.13
2022-07-25T01:23:55.088Z,19.12
2022-07-25T01:30:19.488Z,19.04
2022-07-25T01:36:43.808Z,18.96
2022-07-25T01:43:08.270Z,18.92
2022-07-25T01:49:32.648Z,18.84
2022-07-25T01:55:57.477Z,18.77
2022-07-25T02:02:21.977Z,18.73
2022-07-25T02:08:46.422Z,18.66
2022-07-25T02:15:10.911Z,18.58
2022-07-25T02:21:35.747Z,18.54
2022-07-25T02:28:00.152Z,18.47
2022-07-25T02:34:24.462Z,18.41
2022-07-25T02:40:49.103Z,18.39
2022-07-25T02:47:13.511Z,18.34
2022-07-25T02:53:56.591Z,18.30
2022-07-25T03:00:21.505Z,18.38
2022-07-25T03:06:38.833Z,18.44
2022-07-25T03:13:03.156Z,18.43
2022-07-25T03:19:27.977Z,18.40
2022-07-25T03:25:52.275Z,18.32
2022-07-25T03:32:16.831Z,18.26
2022-07-25T03:38:41.205Z,18.26
2022-07-25T03:45:05.582Z,18.28
2022-07-25T03:51:30.254Z,18.40
2022-07-25T03:57:54.766Z,18.86
2022-07-25T04:04:20.122Z,19.38
2022-07-25T04:10:47.038Z,19.74
2022-07-25T04:17:11.644Z,20.01
2022-07-25T04:23:36.206Z,20.20
2022-07-25T04:30:00.960Z,20.34
2022-07-25T04:36:25.439Z,20.44
2022-07-25T04:42:49.827Z,20.53
2022-07-25T04:49:14.310Z,20.60
2022-07-25T04:55:38.775Z,20.68
2022-07-25T05:02:03.779Z,20.73
2022-07-25T05:08:28.664Z,20.78
2022-07-25T05:14:53.337Z,20.83
2022-07-25T05:21:17.753Z,20.89
2022-07-25T05:27:42.084Z,20.93
2022-07-25T05:34:06.780Z,20.98
2022-07-25T05:40:31.753Z,21.03
2022-07-25T05:46:56.193Z,21.07
2022-07-25T05:53:20.768Z,21.11
2022-07-25T05:59:45.182Z,21.16
2022-07-25T06:06:08.465Z,21.20
2022-07-25T06:12:32.857Z,21.24
2022-07-25T06:18:57.516Z,21.27
2022-07-25T06:25:21.930Z,21.32
2022-07-25T06:31:47.269Z,21.36
2022-07-25T06:38:11.903Z,21.40
2022-07-25T06:44:36.231Z,21.43
2022-07-25T06:51:00.499Z,21.46
2022-07-25T06:57:24.810Z,21.50
2022-07-25T07:03:49.255Z,21.53
2022-07-25T07:10:13.719Z,21.56
2022-07-25T07:16:38.246Z,21.61
2022-07-25T07:23:02.880Z,21.65
2022-07-25T07:29:27.281Z,21.69
2022-07-25T07:35:51.691Z,21.72
2022-07-25T07:42:16.123Z,21.77
2022-07-25T07:48:40.489Z,21.79
2022-07-25T07:55:03.525Z,21.82
2022-07-25T08:01:28.093Z,21.85
2022-07-25T08:07:52.658Z,21.87
2022-07-25T08:14:19.823Z,21.90
2022-07-25T08:20:44.456Z,21.92
2022-07-25T08:27:08.838Z,21.94
2022-07-25T08:33:33.273Z,21.96
2022-07-25T08:39:57.678Z,22.00
2022-07-25T08:46:22.157Z,22.02
2022-07-25T08:52:46.614Z,22.05
2022-07-25T08:59:11.051Z,22.08
2022-07-25T09:05:36.907Z,22.11
2022-07-25T09:12:07.290Z,22.13
2022-07-25T09:18:31.649Z,22.17
2022-07-25T09:24:56.608Z,22.19
2022-07-25T09:31:21.473Z,22.21
2022-07-25T09:37:54.873Z,22.23
2022-07-25T09:44:19.212Z,22.25
2022-07-25T09:50:43.613Z,22.27
2022-07-25T09:57:08.144Z,22.30
2022-07-25T10:03:41.519Z,22.34
2022-07-25T10:10:06.015Z,22.37
2022-07-25T10:16:30.487Z,22.39
2022-07-25T10:22:58.265Z,22.42
2022-07-25T10:29:23.015Z,22.45
2022-07-25T10:35:53.693Z,22.47
2022-07-25T10:42:23.539Z,22.50
2022-07-25T10:48:44.142Z,22.53
2022-07-25T10:55:14.747Z,22.55
2022-07-25T11:01:39.144Z,22.57
2022-07-25T11:08:21.765Z,22.60
2022-07-25T11:14:47.414Z,22.62
2022-07-25T11:21:11.621Z,22.65
2022-07-25T11:27:36.047Z,22.66
2022-07-25T11:34:00.374Z,22.68
2022-07-25T11:40:24.769Z,22.70
2022-07-25T11:46:49.163Z,22.72
2022-07-25T11:53:25.651Z,22.74
2022-07-25T12:00:02.178Z,22.75
2022-07-25T12:06:26.993Z,22.77
2022-07-25T12:12:51.416Z,22.78
2022-07-25T12:19:15.809Z,22.79
2022-07-25T12:25:40.130Z,22.81
2022-07-25T12:32:04.556Z,22.84
2022-07-25T12:38:28.939Z,22.87
2022-07-25T12:44:53.281Z,22.90
2022-07-25T12:51:17.717Z,22.92
2022-07-25T12:57:41.988Z,22.93
2022-07-25T13:04:06.310Z,22.95
2022-07-25T13:10:30.681Z,22.97
2022-07-25T13:16:55.115Z,22.99
2022-07-25T13:23:20.882Z,23.04
2022-07-25T13:29:45.336Z,23.13
2022-07-25T13:36:09.817Z,23.27
2022-07-25T13:42:34.257Z,23.41
2022-07-25T13:48:58.646Z,23.54
2022-07-25T13:55:15.824Z,23.68
2022-07-25T14:01:20.161Z,23.80
2022-07-25T14:07:44.632Z,23.92
2022-07-25T14:14:09.068Z,24.04
2022-07-25T14:20:33.495Z,24.15
2022-07-25T14:26:57.880Z,24.29
2022-07-25T14:33:22.305Z,24.41
2022-07-25T14:39:47.128Z,24.52
2022-07-25T14:46:11.531Z,24.67
2022-07-25T14:52:35.827Z,24.84
2022-07-25T14:59:00.138Z,24.97
2022-07-25T15:05:17.329Z,24.98
2022-07-25T15:11:41.694Z,24.95
2022-07-25T15:18:09.425Z,24.95
2022-07-25T15:24:57.653Z,24.97
2022-07-25T15:31:21.128Z,24.99
2022-07-25T15:37:45.587Z,25.01
2022-07-25T15:44:09.931Z,25.04
2022-07-25T15:50:34.326Z,25.06
2022-07-25T15:56:58.633Z,25.09
2022-07-25T16:03:23.158Z,25.11
2022-07-25T16:09:47.732Z,25.13
2022-07-25T16:16:12.402Z,25.15
2022-07-25T16:22:36.723Z,25.17
2022-07-25T16:29:01.157Z,25.17
2022-07-25T16:35:25.909Z,25.18
2022-07-25T16:41:50.240Z,25.19
2022-07-25T16:48:14.675Z,25.19
2022-07-25T16:54:39.078Z,25.19
2022-07-25T17:01:03.745Z,25.19
2022-07-25T17:07:28.123Z,25.16
2022-07-25T17:13:52.573Z,25.10
2022-07-25T17:20:17.046Z,25.02
2022-07-25T17:26:41.454Z,24.93
2022-07-25T17:33:05.914Z,24.83
2022-07-25T17:39:30.264Z,24.74
2022-07-25T17:45:54.708Z,24.64
2022-07-25T17:52:19.008Z,24.57
2022-07-25T17:58:43.445Z,24.49
2022-07-25T18:05:07.839Z,24.44
2022-07-25T18:11:32.277Z,24.39
2022-07-25T18:17:56.644Z,24.35
2022-07-25T18:24:22.249Z,24.32
2022-07-25T18:30:49.392Z,24.27
2022-07-25T18:37:14.234Z,24.22
2022-07-25T18:43:38.608Z,24.19
2022-07-25T18:50:03.552Z,24.16
2022-07-25T18:56:27.960Z,24.14
2022-07-25T19:02:52.362Z,24.13
2022-07-25T19:09:16.899Z,24.11
2022-07-25T19:15:41.252Z,24.09
2022-07-25T19:22:05.900Z,24.06
2022-07-25T19:28:30.436Z,24.02
2022-07-25T19:34:54.551Z,24.00
2022-07-25T19:41:19.065Z,23.97
2022-07-25T19:47:43.580Z,23.95
2022-07-25T19:54:08.380Z,23.95
2022-07-25T20:00:33.021Z,23.94
2022-07-25T20:06:57.454Z,23.93
2022-07-25T20:13:22.605Z,23.92
2022-07-25T20:19:46.912Z,23.91
2022-07-25T20:26:11.596Z,23.90
2022-07-25T20:32:36.333Z,23.90
2022-07-25T20:39:00.730Z,23.89
2022-07-25T20:45:25.367Z,23.88
